createdAt,value
2019-05-17T00:00:19.591Z,15.77
2019-05-17T00:02:52.194Z,14.40
2019-05-17T00:05:26.525Z,15.10
2019-05-17T00:07:59.922Z,16.13
2019-05-17T00:10:32.590Z,16.93
2019-05-17T00:13:07.551Z,14.33
2019-05-17T00:15:41.340Z,14.90
2019-05-17T00:18:14.196Z,14.20
2019-05-17T00:20:46.905Z,16.33
2019-05-17T00:23:19.674Z,19.37
2019-05-17T00:25:52.680Z,19.13
2019-05-17T00:28:26.913Z,18.67
2019-05-17T00:31:00.887Z,20.30
2019-05-17T00:33:36.513Z,17.43
2019-05-17T00:36:08.746Z,20.97
2019-05-17T00:38:48.098Z,19.73
2019-05-17T00:41:17.627Z,22.00
2019-05-17T00:43:51.457Z,19.03
2019-05-17T00:46:26.497Z,20.93
2019-05-17T00:48:58.594Z,20.70
2019-05-17T00:51:31.441Z,18.80
2019-05-17T00:54:09.495Z,19.70
2019-05-17T00:56:42.214Z,20.57
2019-05-17T00:59:17.198Z,21.07
2019-05-17T01:01:50.250Z,20.50
2019-05-17T01:04:24.447Z,21.37
2019-05-17T01:06:58.518Z,20.93
2019-05-17T01:09:32.256Z,21.10
2019-05-17T01:12:07.059Z,19.73
2019-05-17T01:14:39.539Z,23.83
2019-05-17T01:17:12.564Z,21.93
2019-05-17T01:19:47.185Z,20.33
2019-05-17T01:22:21.923Z,20.83
2019-05-17T01:24:56.906Z,22.07
2019-05-17T01:27:30.587Z,22.03
2019-05-17T01:30:03.939Z,23.93
2019-05-17T01:32:37.523Z,23.90
2019-05-17T01:35:10.557Z,22.83
2019-05-17T01:37:44.003Z,23.40
2019-05-17T01:40:17.517Z,22.83
2019-05-17T01:42:51.115Z,20.07
2019-05-17T01:45:23.838Z,22.80
2019-05-17T01:47:56.451Z,22.27
2019-05-17T01:50:29.581Z,20.53
2019-05-17T01:53:02.306Z,21.80
2019-05-17T01:55:37.545Z,22.70
2019-05-17T01:58:10.591Z,21.50
2019-05-17T02:00:43.204Z,20.90
2019-05-17T02:03:17.334Z,23.03
2019-05-17T02:05:50.011Z,23.90
2019-05-17T02:08:23.523Z,21.43
2019-05-17T02:10:57.396Z,23.63
2019-05-17T02:13:31.510Z,23.10
2019-05-17T02:16:04.341Z,23.10
2019-05-17T02:18:41.177Z,23.57
2019-05-17T02:21:16.675Z,25.17
2019-05-17T02:23:50.787Z,24.23
2019-05-17T02:26:26.573Z,25.27
2019-05-17T02:29:01.330Z,22.83
2019-05-17T02:31:34.246Z,26.23
2019-05-17T02:34:07.514Z,26.07
2019-05-17T02:36:43.016Z,25.97
2019-05-17T02:39:14.530Z,23.60
2019-05-17T02:41:47.276Z,24.90
2019-05-17T02:44:24.110Z,25.90
2019-05-17T02:46:57.684Z,23.33
2019-05-17T02:49:33.053Z,27.80
2019-05-17T02:52:05.439Z,25.37
2019-05-17T02:54:38.893Z,25.30
2019-05-17T02:57:14.133Z,23.23
2019-05-17T02:59:47.524Z,24.63
2019-05-17T03:02:27.556Z,25.17
2019-05-17T03:04:58.329Z,24.10
2019-05-17T03:07:32.617Z,20.97
2019-05-17T03:10:20.980Z,24.37
2019-05-17T03:12:44.533Z,22.20
2019-05-17T03:15:17.636Z,22.23
2019-05-17T03:17:53.710Z,22.23
2019-05-17T03:20:26.155Z,22.90
2019-05-17T03:22:59.442Z,22.63
2019-05-17T03:25:33.686Z,22.70
2019-05-17T03:28:06.970Z,25.87
2019-05-17T03:30:47.024Z,22.43
2019-05-17T03:33:19.193Z,23.17
2019-05-17T03:35:56.653Z,22.90
2019-05-17T03:38:27.001Z,20.50
2019-05-17T03:41:15.716Z,21.73
2019-05-17T03:43:39.420Z,20.80
2019-05-17T03:46:13.865Z,19.47
2019-05-17T03:48:45.253Z,19.60
2019-05-17T03:51:18.784Z,18.07
2019-05-17T03:53:53.763Z,17.63
2019-05-17T03:56:27.738Z,18.57
2019-05-17T03:59:03.758Z,22.27
2019-05-17T04:01:35.519Z,20.03
2019-05-17T04:04:08.440Z,19.53
2019-05-17T04:06:43.639Z,18.60
2019-05-17T04:09:17.451Z,19.67
2019-05-17T04:11:53.249Z,21.47
2019-05-17T04:14:25.120Z,22.83
2019-05-17T04:16:57.685Z,20.10
2019-05-17T04:19:33.457Z,20.50
2019-05-17T04:22:04.973Z,19.17
2019-05-17T04:24:38.339Z,20.70
2019-05-17T04:27:13.592Z,20.40
2019-05-17T04:29:46.961Z,20.97
2019-05-17T04:32:19.741Z,21.30
2019-05-17T04:34:52.986Z,22.77
2019-05-17T04:37:26.784Z,22.40
2019-05-17T04:40:03.167Z,23.37
2019-05-17T04:42:34.873Z,23.00
2019-05-17T04:45:12.456Z,20.90
2019-05-17T04:47:45.023Z,21.87
2019-05-17T04:50:18.717Z,19.13
2019-05-17T04:52:53.698Z,21.23
2019-05-17T04:55:27.406Z,20.17
2019-05-17T04:58:03.508Z,18.27
2019-05-17T05:00:34.654Z,19.00
2019-05-17T05:03:07.512Z,20.93
2019-05-17T05:05:42.863Z,20.90
2019-05-17T05:08:15.847Z,20.03
2019-05-17T05:10:48.677Z,17.63
2019-05-17T05:13:22.812Z,20.07
2019-05-17T05:15:55.669Z,18.83
2019-05-17T05:18:28.574Z,18.97
2019-05-17T05:21:03.667Z,18.20
2019-05-17T05:23:42.276Z,18.33
2019-05-17T05:26:15.619Z,17.73
2019-05-17T05:28:49.757Z,16.63
2019-05-17T05:31:25.954Z,17.50
2019-05-17T05:33:58.714Z,16.30
2019-05-17T05:36:32.761Z,16.37
2019-05-17T05:39:08.904Z,15.70
2019-05-17T05:41:42.815Z,15.17
2019-05-17T05:44:15.922Z,16.03
2019-05-17T05:46:48.808Z,18.50
2019-05-17T05:49:21.740Z,15.07
2019-05-17T05:52:16.503Z,13.80
2019-05-17T05:54:53.086Z,15.20
2019-05-17T05:57:25.254Z,16.63
2019-05-17T05:59:58.288Z,16.13
2019-05-17T06:02:32.249Z,15.63
2019-05-17T06:05:04.856Z,15.60
2019-05-17T06:07:37.032Z,14.67
2019-05-17T06:10:09.657Z,14.63
2019-05-17T06:12:43.442Z,15.13
2019-05-17T06:15:16.384Z,13.90
2019-05-17T06:17:48.596Z,13.87
2019-05-17T06:20:22.445Z,13.90
2019-05-17T06:22:54.873Z,13.47
2019-05-17T06:25:29.486Z,14.00
2019-05-17T06:28:02.004Z,14.47
2019-05-17T06:30:35.792Z,11.60
2019-05-17T06:33:07.971Z,11.93
2019-05-17T06:35:42.358Z,11.93
2019-05-17T06:38:14.930Z,12.90
2019-05-17T06:40:48.390Z,12.57
2019-05-17T06:43:25.380Z,12.37
2019-05-17T06:46:01.978Z,13.77
2019-05-17T06:48:35.833Z,11.00
2019-05-17T06:51:08.392Z,14.00
2019-05-17T06:53:43.535Z,14.37
2019-05-17T06:56:16.854Z,11.17
2019-05-17T06:58:49.488Z,12.37
2019-05-17T07:01:22.931Z,10.60
2019-05-17T07:03:56.114Z,12.37
2019-05-17T07:06:30.112Z,11.20
2019-05-17T07:09:03.698Z,10.40
2019-05-17T07:11:36.749Z,11.43
2019-05-17T07:14:09.389Z,9.77
2019-05-17T07:16:42.406Z,9.17
2019-05-17T07:19:16.403Z,9.13
2019-05-17T07:21:51.671Z,8.90
2019-05-17T07:24:24.821Z,8.57
2019-05-17T07:27:01.393Z,8.20
2019-05-17T07:29:36.417Z,9.87
2019-05-17T07:32:11.437Z,7.67
2019-05-17T07:34:43.648Z,7.80
2019-05-17T07:37:19.598Z,8.13
2019-05-17T07:40:01.109Z,7.83
2019-05-17T07:42:26.592Z,8.10
2019-05-17T07:45:00.569Z,7.90
2019-05-17T07:47:32.665Z,7.27
2019-05-17T07:50:05.054Z,8.07
2019-05-17T07:52:39.808Z,8.10
2019-05-17T07:55:12.406Z,7.40
2019-05-17T07:57:44.921Z,7.87
2019-05-17T08:00:19.946Z,7.23
2019-05-17T08:02:52.350Z,7.67
2019-05-17T08:05:26.265Z,6.60
2019-05-17T08:08:00.133Z,7.57
2019-05-17T08:10:33.121Z,8.43
2019-05-17T08:13:06.796Z,7.43
2019-05-17T08:15:39.978Z,8.13
2019-05-17T08:18:15.671Z,6.90
2019-05-17T08:20:50.257Z,6.97
2019-05-17T08:23:23.605Z,6.30
2019-05-17T08:25:56.392Z,6.80
2019-05-17T08:28:30.993Z,7.37
2019-05-17T08:31:02.805Z,7.07
2019-05-17T08:33:34.870Z,7.63
2019-05-17T08:36:09.283Z,8.23
2019-05-17T08:38:41.757Z,7.20
2019-05-17T08:41:16.115Z,7.30
2019-05-17T08:43:51.434Z,6.57
2019-05-17T08:46:23.744Z,6.60
2019-05-17T08:48:55.973Z,6.23
2019-05-17T08:51:30.521Z,5.77
2019-05-17T08:54:02.301Z,5.53
2019-05-17T08:56:35.273Z,5.20
2019-05-17T08:59:09.452Z,4.87
2019-05-17T09:01:42.193Z,5.50
2019-05-17T09:04:15.044Z,5.20
2019-05-17T09:06:50.459Z,5.10
2019-05-17T09:09:24.058Z,4.90
2019-05-17T09:11:56.567Z,6.20
2019-05-17T09:14:30.026Z,6.53
2019-05-17T09:17:02.746Z,4.40
2019-05-17T09:19:35.682Z,4.30
2019-05-17T09:22:10.477Z,4.00
2019-05-17T09:24:43.542Z,6.07
2019-05-17T09:27:15.829Z,4.37
2019-05-17T09:29:49.700Z,4.13
2019-05-17T09:32:22.419Z,4.67
2019-05-17T09:34:55.499Z,4.43
2019-05-17T09:37:30.330Z,5.30
2019-05-17T09:40:02.068Z,3.90
2019-05-17T09:42:34.767Z,4.43
2019-05-17T09:45:09.608Z,5.00
2019-05-17T09:47:42.028Z,4.73
2019-05-17T09:50:14.471Z,5.20
2019-05-17T09:52:49.453Z,5.20
2019-05-17T09:55:22.105Z,4.30
2019-05-17T09:57:55.604Z,3.87
2019-05-17T10:00:29.699Z,3.90
2019-05-17T10:03:04.226Z,3.37
2019-05-17T10:05:40.563Z,3.63
2019-05-17T10:08:13.096Z,3.47
2019-05-17T10:10:45.719Z,3.77
2019-05-17T10:13:20.116Z,3.30
2019-05-17T10:15:52.369Z,3.10
2019-05-17T10:18:25.102Z,4.90
2019-05-17T10:20:59.668Z,5.80
2019-05-17T10:23:31.432Z,3.77
2019-05-17T10:26:04.501Z,4.37
2019-05-17T10:28:40.016Z,4.00
2019-05-17T10:31:12.414Z,4.43
2019-05-17T10:33:45.581Z,4.63
2019-05-17T10:36:20.268Z,4.17
2019-05-17T10:38:53.252Z,4.40
2019-05-17T10:41:26.128Z,4.87
2019-05-17T10:43:58.715Z,4.40
2019-05-17T10:46:31.392Z,4.37
2019-05-17T10:49:03.677Z,5.43
2019-05-17T10:51:36.702Z,3.93
2019-05-17T10:54:09.583Z,4.20
2019-05-17T10:56:43.855Z,18.13
2019-05-17T10:59:16.636Z,4.17
2019-05-17T11:01:50.756Z,3.33
2019-05-17T11:04:22.847Z,4.97
2019-05-17T11:06:55.093Z,4.63
2019-05-17T11:09:30.997Z,4.70
2019-05-17T11:12:02.760Z,4.40
2019-05-17T11:14:50.060Z,4.30
2019-05-17T11:17:08.891Z,4.23
2019-05-17T11:19:42.299Z,4.27
2019-05-17T11:22:14.609Z,6.40
2019-05-17T11:24:46.876Z,5.53
2019-05-17T11:27:19.036Z,4.73
2019-05-17T11:29:51.936Z,4.60
2019-05-17T11:32:24.168Z,4.90
2019-05-17T11:34:57.513Z,5.97
2019-05-17T11:37:30.629Z,4.50
2019-05-17T11:40:03.094Z,5.03
2019-05-17T11:42:36.865Z,4.40
2019-05-17T11:45:25.087Z,4.30
2019-05-17T11:47:44.505Z,4.37
2019-05-17T11:50:17.503Z,4.40
2019-05-17T11:52:50.781Z,5.27
2019-05-17T11:55:23.933Z,4.50
2019-05-17T11:57:57.433Z,4.07
2019-05-17T12:00:30.071Z,4.53
2019-05-17T12:03:03.588Z,4.40
2019-05-17T12:05:35.894Z,3.60
2019-05-17T12:08:08.905Z,4.00
2019-05-17T12:10:41.602Z,7.40
2019-05-17T12:13:14.249Z,3.63
2019-05-17T12:15:48.392Z,3.27
2019-05-17T12:18:21.292Z,3.17
2019-05-17T12:20:53.608Z,4.33
2019-05-17T12:23:25.782Z,3.97
2019-05-17T12:25:58.349Z,3.70
2019-05-17T12:28:30.854Z,3.27
2019-05-17T12:31:02.959Z,3.30
2019-05-17T12:33:35.470Z,3.50
2019-05-17T12:36:08.223Z,5.43
2019-05-17T12:38:40.781Z,4.00
2019-05-17T12:41:13.031Z,4.27
2019-05-17T12:43:46.713Z,3.70
2019-05-17T12:46:18.777Z,3.03
2019-05-17T12:48:51.405Z,3.50
2019-05-17T12:51:23.909Z,3.47
2019-05-17T12:53:56.631Z,3.37
2019-05-17T12:56:29.093Z,3.13
2019-05-17T12:59:01.138Z,3.93
2019-05-17T13:01:33.333Z,4.27
2019-05-17T13:04:05.536Z,4.17
2019-05-17T13:06:39.340Z,3.50
2019-05-17T13:09:11.641Z,3.10
2019-05-17T13:11:44.225Z,3.90
2019-05-17T13:14:16.926Z,4.47
2019-05-17T13:16:49.466Z,3.93
2019-05-17T13:19:25.230Z,3.63
2019-05-17T13:21:58.700Z,4.07
2019-05-17T13:24:31.096Z,4.00
2019-05-17T13:27:03.568Z,4.40
2019-05-17T13:29:36.290Z,3.90
2019-05-17T13:32:08.630Z,3.83
2019-05-17T13:34:40.687Z,3.50
2019-05-17T13:37:14.526Z,3.97
2019-05-17T13:39:48.334Z,4.03
2019-05-17T13:42:20.476Z,4.40
2019-05-17T13:44:52.573Z,3.50
2019-05-17T13:47:25.494Z,3.80
2019-05-17T13:49:57.987Z,3.87
2019-05-17T13:52:30.562Z,4.27
2019-05-17T13:55:04.773Z,4.00
2019-05-17T13:57:37.131Z,3.33
2019-05-17T14:00:10.230Z,4.20
2019-05-17T14:02:43.196Z,4.40
2019-05-17T14:05:15.672Z,3.90
2019-05-17T14:07:52.642Z,4.20
2019-05-17T14:10:28.675Z,3.30
2019-05-17T14:12:59.148Z,4.03
2019-05-17T14:15:31.649Z,3.20
2019-05-17T14:18:03.819Z,3.10
2019-05-17T14:20:35.929Z,3.13
2019-05-17T14:23:08.670Z,3.50
2019-05-17T14:25:41.308Z,3.40
2019-05-17T14:28:14.655Z,3.73
2019-05-17T14:30:46.877Z,3.60
2019-05-17T14:33:19.216Z,3.77
2019-05-17T14:35:52.352Z,4.80
2019-05-17T14:38:24.946Z,3.20
2019-05-17T14:41:07.421Z,3.30
2019-05-17T14:43:31.786Z,3.50
2019-05-17T14:46:04.126Z,4.23
2019-05-17T14:48:37.743Z,3.30
2019-05-17T14:51:10.278Z,3.30
2019-05-17T14:53:42.353Z,3.53
2019-05-17T14:56:16.045Z,3.10
2019-05-17T14:58:49.430Z,3.30
2019-05-17T15:01:21.849Z,3.20
2019-05-17T15:03:54.309Z,3.00
2019-05-17T15:06:26.390Z,3.23
2019-05-17T15:08:59.652Z,3.30
2019-05-17T15:11:31.768Z,2.83
2019-05-17T15:14:03.933Z,3.20
2019-05-17T15:16:35.939Z,3.63
2019-05-17T15:19:08.942Z,3.30
2019-05-17T15:21:41.137Z,4.67
2019-05-17T15:24:13.511Z,3.40
2019-05-17T15:26:46.117Z,3.20
2019-05-17T15:29:18.447Z,3.77
2019-05-17T15:31:52.126Z,3.17
2019-05-17T15:34:25.189Z,3.13
2019-05-17T15:36:57.496Z,5.53
2019-05-17T15:39:30.762Z,3.83
2019-05-17T15:42:03.371Z,3.20
2019-05-17T15:44:36.693Z,4.33
2019-05-17T15:47:08.904Z,4.53
2019-05-17T15:49:42.109Z,4.57
2019-05-17T15:52:14.702Z,4.47
2019-05-17T15:54:48.873Z,4.47
2019-05-17T15:57:22.327Z,5.30
2019-05-17T15:59:56.499Z,5.83
2019-05-17T16:02:29.354Z,4.40
2019-05-17T16:05:01.991Z,6.00
2019-05-17T16:07:34.519Z,5.30
2019-05-17T16:10:07.825Z,4.90
2019-05-17T16:12:40.770Z,4.60
2019-05-17T16:15:14.058Z,5.00
2019-05-17T16:17:46.513Z,4.83
2019-05-17T16:20:19.253Z,5.47
2019-05-17T16:22:52.273Z,5.13
2019-05-17T16:25:25.060Z,4.23
2019-05-17T16:27:57.227Z,5.00
2019-05-17T16:30:29.978Z,4.57
2019-05-17T16:33:06.214Z,6.47
2019-05-17T16:35:41.011Z,4.67
2019-05-17T16:38:16.986Z,4.47
2019-05-17T16:40:51.141Z,4.97
2019-05-17T16:43:23.246Z,4.37
2019-05-17T16:45:55.415Z,4.17
2019-05-17T16:48:28.639Z,5.37
2019-05-17T16:51:01.704Z,4.37
2019-05-17T16:53:33.844Z,3.77
2019-05-17T16:56:06.688Z,4.63
2019-05-17T16:58:39.800Z,3.70
2019-05-17T17:01:12.369Z,3.80
2019-05-17T17:03:45.468Z,4.47
2019-05-17T17:06:17.934Z,3.70
2019-05-17T17:08:50.462Z,3.50
2019-05-17T17:11:22.855Z,3.20
2019-05-17T17:13:55.577Z,3.30
2019-05-17T17:16:28.314Z,3.30
2019-05-17T17:19:00.425Z,2.92
2019-05-17T17:21:33.356Z,2.72
2019-05-17T17:24:05.739Z,2.95
2019-05-17T17:26:38.753Z,2.70
2019-05-17T17:29:11.218Z,3.05
2019-05-17T17:31:43.884Z,3.35
2019-05-17T17:34:17.586Z,2.98
2019-05-17T17:36:50.356Z,2.85
2019-05-17T17:39:22.523Z,2.70
2019-05-17T17:41:56.414Z,2.83
2019-05-17T17:44:28.564Z,2.83
2019-05-17T17:47:01.787Z,3.35
2019-05-17T17:49:34.145Z,2.62
2019-05-17T17:52:06.476Z,2.80
2019-05-17T17:54:38.984Z,2.70
2019-05-17T17:57:11.627Z,3.13
2019-05-17T17:59:44.343Z,2.63
2019-05-17T18:02:16.774Z,3.30
2019-05-17T18:04:48.869Z,2.57
2019-05-17T18:07:22.267Z,2.70
2019-05-17T18:09:54.927Z,2.80
2019-05-17T18:12:27.054Z,3.73
2019-05-17T18:15:02.475Z,2.73
2019-05-17T18:17:39.304Z,4.00
2019-05-17T18:20:08.527Z,3.00
2019-05-17T18:22:41.154Z,4.43
2019-05-17T18:25:13.400Z,4.53
2019-05-17T18:27:45.697Z,3.10
2019-05-17T18:30:18.115Z,3.17
2019-05-17T18:32:50.048Z,4.30
2019-05-17T18:35:22.725Z,3.17
2019-05-17T18:37:55.475Z,3.20
2019-05-17T18:40:28.129Z,3.70
2019-05-17T18:43:00.404Z,2.60
2019-05-17T18:45:32.836Z,4.37
2019-05-17T18:48:05.629Z,2.97
2019-05-17T18:50:38.692Z,3.00
2019-05-17T18:53:16.790Z,3.40
2019-05-17T18:55:45.552Z,3.37
2019-05-17T18:58:18.021Z,3.63
2019-05-17T19:00:49.876Z,4.50
2019-05-17T19:03:22.845Z,3.20
2019-05-17T19:05:55.437Z,3.50
2019-05-17T19:08:27.376Z,3.57
2019-05-17T19:11:00.361Z,3.47
2019-05-17T19:13:32.912Z,4.30
2019-05-17T19:16:05.011Z,3.70
2019-05-17T19:18:37.248Z,3.60
2019-05-17T19:21:09.824Z,3.33
2019-05-17T19:23:42.646Z,3.70
2019-05-17T19:26:14.775Z,3.93
2019-05-17T19:28:47.366Z,3.73
2019-05-17T19:31:19.606Z,3.40
2019-05-17T19:33:52.159Z,3.97
2019-05-17T19:36:24.649Z,5.37
2019-05-17T19:38:57.437Z,3.40
2019-05-17T19:41:30.927Z,4.20
2019-05-17T19:44:03.454Z,3.73
2019-05-17T19:46:36.414Z,3.47
2019-05-17T19:49:08.969Z,3.90
2019-05-17T19:51:41.838Z,3.90
2019-05-17T19:54:14.410Z,4.43
2019-05-17T19:56:46.834Z,4.73
2019-05-17T19:59:18.925Z,4.30
2019-05-17T20:01:52.174Z,5.10
2019-05-17T20:04:24.230Z,4.10
2019-05-17T20:06:56.830Z,4.37
2019-05-17T20:09:28.963Z,5.30
2019-05-17T20:12:01.130Z,4.53
2019-05-17T20:14:33.543Z,3.93
2019-05-17T20:17:07.102Z,4.70
2019-05-17T20:19:39.202Z,4.57
2019-05-17T20:22:11.667Z,4.30
2019-05-17T20:24:43.824Z,4.83
2019-05-17T20:27:16.964Z,4.27
2019-05-17T20:29:49.603Z,4.70
2019-05-17T20:32:22.560Z,4.07
2019-05-17T20:34:55.067Z,4.23
2019-05-17T20:37:27.040Z,6.63
2019-05-17T20:40:00.268Z,5.77
2019-05-17T20:42:32.298Z,4.27
2019-05-17T20:45:04.870Z,4.57
2019-05-17T20:47:37.492Z,4.50
2019-05-17T20:50:12.233Z,4.50
2019-05-17T20:52:45.455Z,4.43
2019-05-17T20:55:18.363Z,5.20
2019-05-17T20:57:50.249Z,3.70
2019-05-17T21:00:22.646Z,5.80
2019-05-17T21:02:55.233Z,4.43
2019-05-17T21:05:27.253Z,4.63
2019-05-17T21:08:00.334Z,4.17
2019-05-17T21:10:32.677Z,4.30
2019-05-17T21:13:05.144Z,6.00
2019-05-17T21:15:47.379Z,4.10
2019-05-17T21:18:12.929Z,6.50
2019-05-17T21:20:46.637Z,4.40
2019-05-17T21:23:19.297Z,4.20
2019-05-17T21:25:52.534Z,4.13
2019-05-17T21:28:25.043Z,4.50
2019-05-17T21:30:58.316Z,4.40
2019-05-17T21:33:30.519Z,4.77
2019-05-17T21:36:03.201Z,4.30
2019-05-17T21:38:36.120Z,4.37
2019-05-17T21:41:08.265Z,5.17
2019-05-17T21:43:42.004Z,4.50
2019-05-17T21:46:14.042Z,4.37
2019-05-17T21:48:46.239Z,4.50
2019-05-17T21:51:18.208Z,6.03
2019-05-17T21:53:50.206Z,4.57
2019-05-17T21:56:23.349Z,4.80
2019-05-17T21:58:56.352Z,4.60
2019-05-17T22:01:31.676Z,5.77
2019-05-17T22:04:04.537Z,5.10
2019-05-17T22:06:36.556Z,5.83
2019-05-17T22:09:10.546Z,4.63
2019-05-17T22:11:44.878Z,5.40
2019-05-17T22:14:17.510Z,4.80
2019-05-17T22:16:49.807Z,5.10
2019-05-17T22:19:22.554Z,5.57
2019-05-17T22:21:55.341Z,5.43
2019-05-17T22:24:27.956Z,5.50
2019-05-17T22:27:00.450Z,5.13
2019-05-17T22:29:32.961Z,4.87
2019-05-17T22:32:05.650Z,5.33
2019-05-17T22:34:38.983Z,5.37
2019-05-17T22:37:11.062Z,6.83
2019-05-17T22:39:43.085Z,5.30
2019-05-17T22:42:15.171Z,5.03
2019-05-17T22:44:50.246Z,5.57
2019-05-17T22:47:22.299Z,8.77
2019-05-17T22:49:55.316Z,6.73
2019-05-17T22:52:27.240Z,5.93
2019-05-17T22:54:59.326Z,4.50
2019-05-17T22:57:31.639Z,5.00
2019-05-17T23:00:05.056Z,6.27
2019-05-17T23:02:41.452Z,5.67
2019-05-17T23:05:13.956Z,6.10
2019-05-17T23:07:46.238Z,6.40
2019-05-17T23:10:19.218Z,5.20
2019-05-17T23:12:51.647Z,5.53
2019-05-17T23:15:26.569Z,5.50
2019-05-17T23:17:58.936Z,5.33
2019-05-17T23:20:31.481Z,5.17
2019-05-17T23:23:04.991Z,5.13
2019-05-17T23:25:37.369Z,5.87
2019-05-17T23:28:09.442Z,5.20
2019-05-17T23:30:41.711Z,5.30
2019-05-17T23:33:13.856Z,5.90
2019-05-17T23:35:46.035Z,6.67
2019-05-17T23:38:18.765Z,6.67
2019-05-17T23:40:51.229Z,6.27
2019-05-17T23:43:23.838Z,6.63
2019-05-17T23:45:56.222Z,6.30
2019-05-17T23:48:28.440Z,6.30
2019-05-17T23:51:01.175Z,6.93
2019-05-17T23:53:34.893Z,6.57
2019-05-17T23:56:07.586Z,6.47
2019-05-17T23:58:39.635Z,6.63
